sensor_id;sensor_type;location;lat;lon;timestamp;P1;durP1;ratioP1;P2;durP2;ratioP2
52940;SDS011;62001;53.366;6.636;2023-02-01T00:01:55;53.03;;;8.33;;
52940;SDS011;62001;53.366;6.636;2023-02-01T00:04:21;53.03;;;7.83;;
52940;SDS011;62001;53.366;6.636;2023-02-01T00:06:47;52.07;;;7.40;;
52940;SDS011;62001;53.366;6.636;2023-02-01T00:09:13;55.30;;;7.57;;
52940;SDS011;62001;53.366;6.636;2023-02-01T00:11:39;43.67;;;7.50;;
52940;SDS011;62001;53.366;6.636;2023-02-01T00:14:05;48.47;;;7.57;;
52940;SDS011;62001;53.366;6.636;2023-02-01T00:16:32;41.73;;;8.40;;
52940;SDS011;62001;53.366;6.636;2023-02-01T00:19:02;49.67;;;7.10;;
52940;SDS011;62001;53.366;6.636;2023-02-01T00:21:30;46.30;;;7.63;;
52940;SDS011;62001;53.366;6.636;2023-02-01T00:23:57;44.83;;;7.23;;
52940;SDS011;62001;53.366;6.636;2023-02-01T00:26:33;43.50;;;6.93;;
52940;SDS011;62001;53.366;6.636;2023-02-01T00:29:04;43.72;;;7.35;;
52940;SDS011;62001;53.366;6.636;2023-02-01T00:31:32;44.03;;;7.33;;
52940;SDS011;62001;53.366;6.636;2023-02-01T00:33:58;40.07;;;7.13;;
52940;SDS011;62001;53.366;6.636;2023-02-01T00:36:24;43.40;;;7.10;;
52940;SDS011;62001;53.366;6.636;2023-02-01T00:38:50;40.53;;;6.87;;
52940;SDS011;62001;53.366;6.636;2023-02-01T00:41:17;38.03;;;6.53;;
52940;SDS011;62001;53.366;6.636;2023-02-01T00:43:44;42.37;;;6.83;;
52940;SDS011;62001;53.366;6.636;2023-02-01T00:46:12;46.17;;;7.03;;
52940;SDS011;62001;53.366;6.636;2023-02-01T00:48:39;34.27;;;6.00;;
52940;SDS011;62001;53.366;6.636;2023-02-01T00:51:06;42.00;;;7.07;;
52940;SDS011;62001;53.366;6.636;2023-02-01T00:53:37;44.13;;;6.40;;
52940;SDS011;62001;53.366;6.636;2023-02-01T00:56:03;36.73;;;7.07;;
52940;SDS011;62001;53.366;6.636;2023-02-01T00:58:31;33.50;;;6.43;;
52940;SDS011;62001;53.366;6.636;2023-02-01T01:01:08;39.90;;;6.53;;
52940;SDS011;62001;53.366;6.636;2023-02-01T01:03:37;40.90;;;6.87;;
52940;SDS011;62001;53.366;6.636;2023-02-01T01:06:07;37.73;;;6.97;;
52940;SDS011;62001;53.366;6.636;2023-02-01T01:08:34;39.45;;;7.25;;
52940;SDS011;62001;53.366;6.636;2023-02-01T01:11:11;31.77;;;6.03;;
52940;SDS011;62001;53.366;6.636;2023-02-01T01:13:42;37.53;;;6.83;;
52940;SDS011;62001;53.366;6.636;2023-02-01T01:16:12;56.47;;;7.50;;
52940;SDS011;62001;53.366;6.636;2023-02-01T01:18:38;41.70;;;6.93;;
52940;SDS011;62001;53.366;6.636;2023-02-01T01:21:05;41.37;;;7.50;;
52940;SDS011;62001;53.366;6.636;2023-02-01T01:23:32;40.40;;;6.63;;
52940;SDS011;62001;53.366;6.636;2023-02-01T01:25:58;39.17;;;6.50;;
52940;SDS011;62001;53.366;6.636;2023-02-01T01:28:24;37.53;;;6.73;;
52940;SDS011;62001;53.366;6.636;2023-02-01T01:30:50;53.23;;;7.43;;
52940;SDS011;62001;53.366;6.636;2023-02-01T01:33:16;35.63;;;6.83;;
52940;SDS011;62001;53.366;6.636;2023-02-01T01:35:42;39.80;;;7.07;;
52940;SDS011;62001;53.366;6.636;2023-02-01T01:38:10;45.23;;;7.00;;
52940;SDS011;62001;53.366;6.636;2023-02-01T01:40:36;40.10;;;6.80;;
52940;SDS011;62001;53.366;6.636;2023-02-01T01:43:02;39.47;;;6.87;;
52940;SDS011;62001;53.366;6.636;2023-02-01T01:45:30;39.77;;;7.07;;
52940;SDS011;62001;53.366;6.636;2023-02-01T01:47:58;40.80;;;6.47;;
52940;SDS011;62001;53.366;6.636;2023-02-01T01:50:35;46.63;;;7.07;;
52940;SDS011;62001;53.366;6.636;2023-02-01T01:53:23;42.03;;;7.10;;
52940;SDS011;62001;53.366;6.636;2023-02-01T01:55:54;40.70;;;6.80;;
52940;SDS011;62001;53.366;6.636;2023-02-01T01:58:22;37.70;;;7.17;;
52940;SDS011;62001;53.366;6.636;2023-02-01T02:00:51;40.10;;;6.80;;
52940;SDS011;62001;53.366;6.636;2023-02-01T02:09:15;36.43;;;7.07;;
52940;SDS011;62001;53.366;6.636;2023-02-01T02:11:41;45.87;;;7.13;;
52940;SDS011;62001;53.366;6.636;2023-02-01T02:14:08;39.47;;;6.77;;
52940;SDS011;62001;53.366;6.636;2023-02-01T02:24:53;39.43;;;6.57;;
52940;SDS011;62001;53.366;6.636;2023-02-01T02:43:43;40.37;;;6.67;;
52940;SDS011;62001;53.366;6.636;2023-02-01T02:46:40;41.63;;;7.23;;
52940;SDS011;62001;53.366;6.636;2023-02-01T02:49:38;35.63;;;6.53;;
52940;SDS011;62001;53.366;6.636;2023-02-01T02:52:06;33.63;;;6.00;;
52940;SDS011;62001;53.366;6.636;2023-02-01T02:55:00;34.40;;;6.50;;
52940;SDS011;62001;53.366;6.636;2023-02-01T02:57:36;37.30;;;6.33;;
52940;SDS011;62001;53.366;6.636;2023-02-01T03:00:24;39.27;;;7.17;;
52940;SDS011;62001;53.366;6.636;2023-02-01T03:03:13;38.45;;;6.78;;
52940;SDS011;62001;53.366;6.636;2023-02-01T03:05:57;47.30;;;6.40;;
52940;SDS011;62001;53.366;6.636;2023-02-01T03:08:27;44.63;;;7.20;;
52940;SDS011;62001;53.366;6.636;2023-02-01T03:11:10;41.67;;;6.80;;
52940;SDS011;62001;53.366;6.636;2023-02-01T03:16:23;43.17;;;6.43;;
52940;SDS011;62001;53.366;6.636;2023-02-01T03:24:10;27.23;;;6.47;;
52940;SDS011;62001;53.366;6.636;2023-02-01T03:26:37;33.97;;;6.37;;
52940;SDS011;62001;53.366;6.636;2023-02-01T03:29:29;31.35;;;5.60;;
52940;SDS011;62001;53.366;6.636;2023-02-01T03:31:56;41.53;;;6.77;;
52940;SDS011;62001;53.366;6.636;2023-02-01T03:34:22;44.73;;;6.73;;
52940;SDS011;62001;53.366;6.636;2023-02-01T03:36:49;37.50;;;6.57;;
52940;SDS011;62001;53.366;6.636;2023-02-01T03:39:27;37.47;;;6.90;;
52940;SDS011;62001;53.366;6.636;2023-02-01T03:42:08;34.80;;;6.47;;
52940;SDS011;62001;53.366;6.636;2023-02-01T03:44:47;43.77;;;7.10;;
52940;SDS011;62001;53.366;6.636;2023-02-01T03:47:15;41.80;;;7.00;;
52940;SDS011;62001;53.366;6.636;2023-02-01T03:49:51;40.10;;;6.27;;
52940;SDS011;62001;53.366;6.636;2023-02-01T03:52:28;29.70;;;5.93;;
52940;SDS011;62001;53.366;6.636;2023-02-01T03:55:01;40.10;;;6.77;;
52940;SDS011;62001;53.366;6.636;2023-02-01T03:57:32;36.50;;;7.23;;
52940;SDS011;62001;53.366;6.636;2023-02-01T04:02:33;43.40;;;6.43;;
52940;SDS011;62001;53.366;6.636;2023-02-01T04:04:59;37.00;;;7.57;;
52940;SDS011;62001;53.366;6.636;2023-02-01T04:07:25;46.43;;;8.50;;
52940;SDS011;62001;53.366;6.636;2023-02-01T04:09:51;41.73;;;7.57;;
52940;SDS011;62001;53.366;6.636;2023-02-01T04:12:17;49.23;;;8.03;;
52940;SDS011;62001;53.366;6.636;2023-02-01T04:14:45;44.47;;;8.60;;
52940;SDS011;62001;53.366;6.636;2023-02-01T04:17:11;54.30;;;8.30;;
52940;SDS011;62001;53.366;6.636;2023-02-01T04:19:37;47.23;;;7.83;;
52940;SDS011;62001;53.366;6.636;2023-02-01T04:22:03;43.97;;;7.53;;
52940;SDS011;62001;53.366;6.636;2023-02-01T04:24:29;44.10;;;7.57;;
52940;SDS011;62001;53.366;6.636;2023-02-01T04:26:54;52.30;;;7.20;;
52940;SDS011;62001;53.366;6.636;2023-02-01T04:29:20;42.07;;;6.87;;
52940;SDS011;62001;53.366;6.636;2023-02-01T04:31:46;38.07;;;6.87;;
52940;SDS011;62001;53.366;6.636;2023-02-01T04:34:12;33.10;;;6.10;;
52940;SDS011;62001;53.366;6.636;2023-02-01T04:36:38;28.50;;;5.13;;
52940;SDS011;62001;53.366;6.636;2023-02-01T04:39:05;31.57;;;6.27;;
52940;SDS011;62001;53.366;6.636;2023-02-01T04:41:31;37.67;;;6.27;;
52940;SDS011;62001;53.366;6.636;2023-02-01T04:43:56;40.83;;;6.60;;
52940;SDS011;62001;53.366;6.636;2023-02-01T04:46:22;38.33;;;7.13;;
52940;SDS011;62001;53.366;6.636;2023-02-01T04:48:48;43.33;;;6.90;;
52940;SDS011;62001;53.366;6.636;2023-02-01T04:51:14;42.63;;;7.00;;
52940;SDS011;62001;53.366;6.636;2023-02-01T04:53:40;33.37;;;7.50;;
52940;SDS011;62001;53.366;6.636;2023-02-01T04:56:06;38.53;;;6.77;;
52940;SDS011;62001;53.366;6.636;2023-02-01T04:58:33;39.53;;;6.17;;
52940;SDS011;62001;53.366;6.636;2023-02-01T05:00:58;40.87;;;6.77;;
52940;SDS011;62001;53.366;6.636;2023-02-01T05:03:29;36.33;;;6.78;;
52940;SDS011;62001;53.366;6.636;2023-02-01T05:05:55;35.80;;;6.70;;
52940;SDS011;62001;53.366;6.636;2023-02-01T05:08:21;31.70;;;5.80;;
52940;SDS011;62001;53.366;6.636;2023-02-01T05:10:47;40.43;;;6.53;;
52940;SDS011;62001;53.366;6.636;2023-02-01T05:13:13;40.60;;;6.03;;
52940;SDS011;62001;53.366;6.636;2023-02-01T05:15:58;43.67;;;6.33;;
52940;SDS011;62001;53.366;6.636;2023-02-01T05:18:23;37.57;;;6.47;;
52940;SDS011;62001;53.366;6.636;2023-02-01T05:20:49;43.47;;;6.87;;
52940;SDS011;62001;53.366;6.636;2023-02-01T05:23:15;40.63;;;6.93;;
52940;SDS011;62001;53.366;6.636;2023-02-01T05:25:41;45.07;;;7.23;;
52940;SDS011;62001;53.366;6.636;2023-02-01T05:28:07;38.10;;;6.57;;
52940;SDS011;62001;53.366;6.636;2023-02-01T05:30:32;42.43;;;7.17;;
52940;SDS011;62001;53.366;6.636;2023-02-01T05:33:00;47.10;;;7.30;;
52940;SDS011;62001;53.366;6.636;2023-02-01T05:35:26;41.57;;;7.10;;
52940;SDS011;62001;53.366;6.636;2023-02-01T05:37:52;43.03;;;6.77;;
52940;SDS011;62001;53.366;6.636;2023-02-01T05:40:18;41.77;;;7.30;;
52940;SDS011;62001;53.366;6.636;2023-02-01T05:42:44;48.37;;;7.90;;
52940;SDS011;62001;53.366;6.636;2023-02-01T05:45:10;52.33;;;7.73;;
52940;SDS011;62001;53.366;6.636;2023-02-01T05:47:36;46.03;;;7.63;;
52940;SDS011;62001;53.366;6.636;2023-02-01T05:50:02;42.40;;;8.27;;
52940;SDS011;62001;53.366;6.636;2023-02-01T05:52:29;50.40;;;7.73;;
52940;SDS011;62001;53.366;6.636;2023-02-01T05:54:55;47.20;;;8.10;;
52940;SDS011;62001;53.366;6.636;2023-02-01T05:57:21;49.73;;;8.40;;
52940;SDS011;62001;53.366;6.636;2023-02-01T05:59:47;41.13;;;6.97;;
52940;SDS011;62001;53.366;6.636;2023-02-01T06:02:14;53.97;;;8.33;;
52940;SDS011;62001;53.366;6.636;2023-02-01T06:04:41;46.97;;;7.53;;
52940;SDS011;62001;53.366;6.636;2023-02-01T06:07:07;40.70;;;7.60;;
52940;SDS011;62001;53.366;6.636;2023-02-01T06:09:35;31.50;;;6.67;;
52940;SDS011;62001;53.366;6.636;2023-02-01T06:12:02;40.20;;;6.67;;
52940;SDS011;62001;53.366;6.636;2023-02-01T06:14:29;36.97;;;6.50;;
52940;SDS011;62001;53.366;6.636;2023-02-01T06:16:54;39.37;;;6.77;;
52940;SDS011;62001;53.366;6.636;2023-02-01T06:19:21;41.53;;;7.00;;
52940;SDS011;62001;53.366;6.636;2023-02-01T06:21:47;37.27;;;7.03;;
52940;SDS011;62001;53.366;6.636;2023-02-01T06:24:13;42.07;;;7.50;;
52940;SDS011;62001;53.366;6.636;2023-02-01T06:26:39;40.40;;;6.80;;
52940;SDS011;62001;53.366;6.636;2023-02-01T06:29:05;43.70;;;7.70;;
52940;SDS011;62001;53.366;6.636;2023-02-01T06:31:33;55.17;;;6.90;;
52940;SDS011;62001;53.366;6.636;2023-02-01T06:33:59;50.53;;;7.47;;
52940;SDS011;62001;53.366;6.636;2023-02-01T06:36:24;48.60;;;7.40;;
52940;SDS011;62001;53.366;6.636;2023-02-01T06:38:50;46.83;;;7.10;;
52940;SDS011;62001;53.366;6.636;2023-02-01T06:41:17;35.63;;;6.77;;
52940;SDS011;62001;53.366;6.636;2023-02-01T06:43:43;42.90;;;7.13;;
52940;SDS011;62001;53.366;6.636;2023-02-01T06:46:11;41.70;;;6.67;;
52940;SDS011;62001;53.366;6.636;2023-02-01T06:48:38;38.60;;;6.23;;
52940;SDS011;62001;53.366;6.636;2023-02-01T06:51:04;42.83;;;7.13;;
52940;SDS011;62001;53.366;6.636;2023-02-01T06:53:30;55.17;;;8.00;;
52940;SDS011;62001;53.366;6.636;2023-02-01T06:55:57;50.37;;;8.43;;
52940;SDS011;62001;53.366;6.636;2023-02-01T06:58:27;53.20;;;8.93;;
52940;SDS011;62001;53.366;6.636;2023-02-01T07:00:55;50.05;;;8.13;;
52940;SDS011;62001;53.366;6.636;2023-02-01T07:03:20;50.37;;;7.53;;
52940;SDS011;62001;53.366;6.636;2023-02-01T07:05:46;50.63;;;7.70;;
52940;SDS011;62001;53.366;6.636;2023-02-01T07:08:12;44.50;;;7.27;;
52940;SDS011;62001;53.366;6.636;2023-02-01T07:10:38;38.30;;;7.70;;
52940;SDS011;62001;53.366;6.636;2023-02-01T07:13:04;38.00;;;6.33;;
52940;SDS011;62001;53.366;6.636;2023-02-01T07:15:30;42.87;;;6.13;;
52940;SDS011;62001;53.366;6.636;2023-02-01T07:17:56;41.83;;;6.67;;
52940;SDS011;62001;53.366;6.636;2023-02-01T07:20:22;33.77;;;5.57;;
52940;SDS011;62001;53.366;6.636;2023-02-01T07:22:48;32.93;;;6.23;;
52940;SDS011;62001;53.366;6.636;2023-02-01T07:25:19;38.23;;;6.07;;
52940;SDS011;62001;53.366;6.636;2023-02-01T07:27:45;33.00;;;5.80;;
52940;SDS011;62001;53.366;6.636;2023-02-01T07:30:11;26.63;;;5.53;;
52940;SDS011;62001;53.366;6.636;2023-02-01T07:32:38;38.63;;;6.10;;
52940;SDS011;62001;53.366;6.636;2023-02-01T07:35:04;36.30;;;5.73;;
52940;SDS011;62001;53.366;6.636;2023-02-01T07:37:30;34.73;;;6.00;;
52940;SDS011;62001;53.366;6.636;2023-02-01T07:39:56;36.10;;;5.13;;
52940;SDS011;62001;53.366;6.636;2023-02-01T07:42:22;31.73;;;5.73;;
52940;SDS011;62001;53.366;6.636;2023-02-01T07:44:47;33.90;;;6.40;;
52940;SDS011;62001;53.366;6.636;2023-02-01T07:47:13;43.80;;;6.37;;
52940;SDS011;62001;53.366;6.636;2023-02-01T07:49:39;39.77;;;7.03;;
52940;SDS011;62001;53.366;6.636;2023-02-01T07:52:05;38.40;;;6.83;;
52940;SDS011;62001;53.366;6.636;2023-02-01T07:54:31;48.40;;;6.80;;
52940;SDS011;62001;53.366;6.636;2023-02-01T07:56:57;43.43;;;7.03;;
52940;SDS011;62001;53.366;6.636;2023-02-01T07:59:23;38.00;;;6.50;;
52940;SDS011;62001;53.366;6.636;2023-02-01T08:01:48;41.07;;;7.03;;
52940;SDS011;62001;53.366;6.636;2023-02-01T08:04:14;42.97;;;6.90;;
52940;SDS011;62001;53.366;6.636;2023-02-01T08:06:40;44.30;;;6.80;;
52940;SDS011;62001;53.366;6.636;2023-02-01T08:09:06;34.00;;;6.40;;
52940;SDS011;62001;53.366;6.636;2023-02-01T08:11:35;38.17;;;6.35;;
52940;SDS011;62001;53.366;6.636;2023-02-01T08:14:03;44.17;;;6.93;;
52940;SDS011;62001;53.366;6.636;2023-02-01T08:16:29;43.60;;;7.60;;
52940;SDS011;62001;53.366;6.636;2023-02-01T08:18:55;46.60;;;6.93;;
52940;SDS011;62001;53.366;6.636;2023-02-01T08:21:24;39.53;;;6.73;;
52940;SDS011;62001;53.366;6.636;2023-02-01T08:23:52;35.00;;;6.37;;
52940;SDS011;62001;53.366;6.636;2023-02-01T08:26:19;45.57;;;7.67;;
52940;SDS011;62001;53.366;6.636;2023-02-01T08:28:50;50.37;;;7.27;;
52940;SDS011;62001;53.366;6.636;2023-02-01T08:31:18;36.33;;;6.30;;
52940;SDS011;62001;53.366;6.636;2023-02-01T08:33:50;40.07;;;6.47;;
52940;SDS011;62001;53.366;6.636;2023-02-01T08:36:17;37.23;;;6.53;;
52940;SDS011;62001;53.366;6.636;2023-02-01T08:38:43;43.90;;;6.70;;
52940;SDS011;62001;53.366;6.636;2023-02-01T08:41:11;40.03;;;6.80;;
52940;SDS011;62001;53.366;6.636;2023-02-01T08:43:39;34.80;;;6.13;;
52940;SDS011;62001;53.366;6.636;2023-02-01T08:46:06;30.73;;;6.17;;
52940;SDS011;62001;53.366;6.636;2023-02-01T08:48:32;41.47;;;6.07;;
52940;SDS011;62001;53.366;6.636;2023-02-01T08:51:00;32.40;;;6.23;;
52940;SDS011;62001;53.366;6.636;2023-02-01T08:53:30;40.80;;;6.10;;
52940;SDS011;62001;53.366;6.636;2023-02-01T08:55:56;39.70;;;6.30;;
52940;SDS011;62001;53.366;6.636;2023-02-01T08:58:22;33.47;;;5.37;;
52940;SDS011;62001;53.366;6.636;2023-02-01T09:00:48;39.67;;;6.93;;
52940;SDS011;62001;53.366;6.636;2023-02-01T09:03:14;31.83;;;6.03;;
52940;SDS011;62001;53.366;6.636;2023-02-01T09:05:41;40.57;;;6.40;;
52940;SDS011;62001;53.366;6.636;2023-02-01T09:08:07;42.03;;;6.43;;
52940;SDS011;62001;53.366;6.636;2023-02-01T09:10:33;33.20;;;5.70;;
52940;SDS011;62001;53.366;6.636;2023-02-01T09:12:59;36.73;;;6.10;;
52940;SDS011;62001;53.366;6.636;2023-02-01T09:15:25;33.17;;;6.33;;
52940;SDS011;62001;53.366;6.636;2023-02-01T09:17:51;36.03;;;6.03;;
52940;SDS011;62001;53.366;6.636;2023-02-01T09:20:17;32.47;;;6.30;;
52940;SDS011;62001;53.366;6.636;2023-02-01T09:22:45;30.77;;;5.47;;
52940;SDS011;62001;53.366;6.636;2023-02-01T09:25:11;37.73;;;6.57;;
52940;SDS011;62001;53.366;6.636;2023-02-01T09:27:38;35.03;;;6.43;;
52940;SDS011;62001;53.366;6.636;2023-02-01T09:30:04;39.03;;;5.77;;
52940;SDS011;62001;53.366;6.636;2023-02-01T09:32:30;36.03;;;6.67;;
52940;SDS011;62001;53.366;6.636;2023-02-01T09:34:56;31.37;;;6.20;;
52940;SDS011;62001;53.366;6.636;2023-02-01T09:37:22;27.57;;;5.57;;
52940;SDS011;62001;53.366;6.636;2023-02-01T09:39:48;40.43;;;6.50;;
52940;SDS011;62001;53.366;6.636;2023-02-01T09:45:17;33.70;;;6.50;;
52940;SDS011;62001;53.366;6.636;2023-02-01T09:48:02;27.17;;;5.03;;
52940;SDS011;62001;53.366;6.636;2023-02-01T09:50:43;33.53;;;6.38;;
52940;SDS011;62001;53.366;6.636;2023-02-01T09:53:21;33.83;;;7.20;;
52940;SDS011;62001;53.366;6.636;2023-02-01T09:55:55;34.90;;;6.10;;
52940;SDS011;62001;53.366;6.636;2023-02-01T09:58:41;32.03;;;6.60;;
52940;SDS011;62001;53.366;6.636;2023-02-01T10:01:20;40.03;;;7.87;;
52940;SDS011;62001;53.366;6.636;2023-02-01T10:04:10;42.83;;;6.87;;
52940;SDS011;62001;53.366;6.636;2023-02-01T10:07:01;39.57;;;7.17;;
52940;SDS011;62001;53.366;6.636;2023-02-01T10:26:20;39.87;;;6.33;;
52940;SDS011;62001;53.366;6.636;2023-02-01T10:28:55;35.13;;;6.07;;
52940;SDS011;62001;53.366;6.636;2023-02-01T10:31:28;35.20;;;5.82;;
52940;SDS011;62001;53.366;6.636;2023-02-01T10:38:57;33.03;;;6.00;;
52940;SDS011;62001;53.366;6.636;2023-02-01T10:41:24;38.27;;;5.70;;
52940;SDS011;62001;53.366;6.636;2023-02-01T10:43:58;37.63;;;5.63;;
52940;SDS011;62001;53.366;6.636;2023-02-01T10:46:29;37.10;;;6.32;;
52940;SDS011;62001;53.366;6.636;2023-02-01T10:48:56;39.93;;;5.60;;
52940;SDS011;62001;53.366;6.636;2023-02-01T10:54:32;49.57;;;6.57;;
52940;SDS011;62001;53.366;6.636;2023-02-01T10:57:00;42.80;;;6.83;;
52940;SDS011;62001;53.366;6.636;2023-02-01T10:59:27;18.00;;;3.70;;
52940;SDS011;62001;53.366;6.636;2023-02-01T11:01:59;10.20;;;1.40;;
52940;SDS011;62001;53.366;6.636;2023-02-01T11:04:26;3.97;;;0.93;;
52940;SDS011;62001;53.366;6.636;2023-02-01T11:07:17;4.30;;;1.10;;
52940;SDS011;62001;53.366;6.636;2023-02-01T11:09:50;3.55;;;1.05;;
52940;SDS011;62001;53.366;6.636;2023-02-01T11:12:33;5.50;;;0.90;;
52940;SDS011;62001;53.366;6.636;2023-02-01T11:15:20;3.93;;;1.10;;
52940;SDS011;62001;53.366;6.636;2023-02-01T11:17:49;4.57;;;1.23;;
52940;SDS011;62001;53.366;6.636;2023-02-01T11:20:39;12.07;;;1.37;;
52940;SDS011;62001;53.366;6.636;2023-02-01T11:23:16;11.33;;;2.10;;
52940;SDS011;62001;53.366;6.636;2023-02-01T11:25:54;11.37;;;2.13;;
52940;SDS011;62001;53.366;6.636;2023-02-01T11:28:26;13.47;;;2.07;;
52940;SDS011;62001;53.366;6.636;2023-02-01T11:30:56;9.03;;;2.10;;
52940;SDS011;62001;53.366;6.636;2023-02-01T11:33:33;11.48;;;1.52;;
52940;SDS011;62001;53.366;6.636;2023-02-01T11:36:12;16.67;;;2.40;;
52940;SDS011;62001;53.366;6.636;2023-02-01T11:38:45;13.95;;;2.40;;
52940;SDS011;62001;53.366;6.636;2023-02-01T11:41:32;11.40;;;2.87;;
52940;SDS011;62001;53.366;6.636;2023-02-01T11:43:59;10.13;;;3.07;;
52940;SDS011;62001;53.366;6.636;2023-02-01T11:46:32;7.93;;;3.53;;
52940;SDS011;62001;53.366;6.636;2023-02-01T11:59:46;11.13;;;1.63;;
52940;SDS011;62001;53.366;6.636;2023-02-01T12:08:32;13.60;;;2.40;;
52940;SDS011;62001;53.366;6.636;2023-02-01T12:19:22;22.07;;;3.63;;
52940;SDS011;62001;53.366;6.636;2023-02-01T12:49:10;48.80;;;8.23;;
52940;SDS011;62001;53.366;6.636;2023-02-01T12:51:54;46.07;;;7.23;;
52940;SDS011;62001;53.366;6.636;2023-02-01T12:57:01;45.97;;;7.07;;
52940;SDS011;62001;53.366;6.636;2023-02-01T12:59:34;42.38;;;6.82;;
52940;SDS011;62001;53.366;6.636;2023-02-01T13:05:04;41.50;;;7.07;;
52940;SDS011;62001;53.366;6.636;2023-02-01T13:15:42;45.07;;;8.50;;
52940;SDS011;62001;53.366;6.636;2023-02-01T13:18:18;49.20;;;7.50;;
52940;SDS011;62001;53.366;6.636;2023-02-01T13:23:34;42.73;;;7.63;;
52940;SDS011;62001;53.366;6.636;2023-02-01T13:26:03;42.13;;;7.20;;
52940;SDS011;62001;53.366;6.636;2023-02-01T13:28:31;38.63;;;7.03;;
52940;SDS011;62001;53.366;6.636;2023-02-01T13:39:48;38.27;;;7.33;;
52940;SDS011;62001;53.366;6.636;2023-02-01T13:42:29;43.27;;;7.30;;
52940;SDS011;62001;53.366;6.636;2023-02-01T13:58:17;43.43;;;7.53;;
52940;SDS011;62001;53.366;6.636;2023-02-01T14:00:40;47.33;;;7.00;;
52940;SDS011;62001;53.366;6.636;2023-02-01T14:03:52;45.97;;;7.60;;
52940;SDS011;62001;53.366;6.636;2023-02-01T14:06:32;42.43;;;7.53;;
52940;SDS011;62001;53.366;6.636;2023-02-01T14:11:36;43.90;;;7.73;;
52940;SDS011;62001;53.366;6.636;2023-02-01T14:14:07;41.93;;;7.20;;
52940;SDS011;62001;53.366;6.636;2023-02-01T14:21:57;49.97;;;8.03;;
52940;SDS011;62001;53.366;6.636;2023-02-01T14:24:27;38.72;;;7.15;;
52940;SDS011;62001;53.366;6.636;2023-02-01T14:29:43;45.63;;;6.90;;
52940;SDS011;62001;53.366;6.636;2023-02-01T14:32:23;47.27;;;7.67;;
52940;SDS011;62001;53.366;6.636;2023-02-01T14:34:58;46.40;;;6.73;;
52940;SDS011;62001;53.366;6.636;2023-02-01T14:37:28;39.00;;;7.50;;
52940;SDS011;62001;53.366;6.636;2023-02-01T14:47:55;50.15;;;7.68;;
52940;SDS011;62001;53.366;6.636;2023-02-01T14:50:46;47.00;;;7.63;;
52940;SDS011;62001;53.366;6.636;2023-02-01T14:53:21;35.07;;;6.83;;
52940;SDS011;62001;53.366;6.636;2023-02-01T14:56:00;41.42;;;6.95;;
52940;SDS011;62001;53.366;6.636;2023-02-01T15:01:06;29.10;;;6.00;;
52940;SDS011;62001;53.366;6.636;2023-02-01T15:06:18;47.33;;;7.22;;
52940;SDS011;62001;53.366;6.636;2023-02-01T15:08:56;41.67;;;6.95;;
52940;SDS011;62001;53.366;6.636;2023-02-01T15:11:30;36.65;;;6.00;;
52940;SDS011;62001;53.366;6.636;2023-02-01T15:13:56;36.70;;;5.90;;
52940;SDS011;62001;53.366;6.636;2023-02-01T15:16:23;33.63;;;6.20;;
52940;SDS011;62001;53.366;6.636;2023-02-01T15:18:50;35.22;;;6.20;;
52940;SDS011;62001;53.366;6.636;2023-02-01T15:21:32;36.30;;;6.13;;
52940;SDS011;62001;53.366;6.636;2023-02-01T15:24:12;34.67;;;6.20;;
52940;SDS011;62001;53.366;6.636;2023-02-01T15:26:48;39.20;;;6.65;;
52940;SDS011;62001;53.366;6.636;2023-02-01T15:29:15;40.63;;;6.63;;
52940;SDS011;62001;53.366;6.636;2023-02-01T15:34:10;41.05;;;6.97;;
52940;SDS011;62001;53.366;6.636;2023-02-01T15:36:36;35.03;;;6.77;;
52940;SDS011;62001;53.366;6.636;2023-02-01T15:42:09;37.67;;;6.80;;
52940;SDS011;62001;53.366;6.636;2023-02-01T15:44:41;34.03;;;7.50;;
52940;SDS011;62001;53.366;6.636;2023-02-01T15:47:23;37.38;;;6.80;;
52940;SDS011;62001;53.366;6.636;2023-02-01T15:49:52;34.03;;;6.37;;
52940;SDS011;62001;53.366;6.636;2023-02-01T15:52:36;36.90;;;6.37;;
52940;SDS011;62001;53.366;6.636;2023-02-01T15:55:08;37.87;;;6.47;;
52940;SDS011;62001;53.366;6.636;2023-02-01T15:57:43;40.23;;;6.17;;
52940;SDS011;62001;53.366;6.636;2023-02-01T16:00:23;33.87;;;6.80;;
52940;SDS011;62001;53.366;6.636;2023-02-01T16:05:42;40.13;;;6.47;;
52940;SDS011;62001;53.366;6.636;2023-02-01T16:08:16;50.67;;;7.57;;
52940;SDS011;62001;53.366;6.636;2023-02-01T16:10:48;47.50;;;7.67;;
52940;SDS011;62001;53.366;6.636;2023-02-01T16:13:16;40.90;;;7.80;;
52940;SDS011;62001;53.366;6.636;2023-02-01T16:15:45;42.40;;;7.00;;
52940;SDS011;62001;53.366;6.636;2023-02-01T16:18:12;48.30;;;8.13;;
52940;SDS011;62001;53.366;6.636;2023-02-01T16:20:39;37.53;;;6.93;;
52940;SDS011;62001;53.366;6.636;2023-02-01T16:23:06;37.80;;;6.80;;
52940;SDS011;62001;53.366;6.636;2023-02-01T16:25:33;39.97;;;6.67;;
52940;SDS011;62001;53.366;6.636;2023-02-01T16:27:59;36.53;;;6.37;;
52940;SDS011;62001;53.366;6.636;2023-02-01T16:30:25;37.37;;;6.47;;
52940;SDS011;62001;53.366;6.636;2023-02-01T16:32:52;39.20;;;6.27;;
52940;SDS011;62001;53.366;6.636;2023-02-01T16:38:03;37.17;;;6.60;;
52940;SDS011;62001;53.366;6.636;2023-02-01T16:40:39;34.93;;;6.60;;
52940;SDS011;62001;53.366;6.636;2023-02-01T16:43:13;36.63;;;6.93;;
52940;SDS011;62001;53.366;6.636;2023-02-01T16:45:41;37.77;;;6.07;;
52940;SDS011;62001;53.366;6.636;2023-02-01T16:48:20;42.07;;;6.40;;
52940;SDS011;62001;53.366;6.636;2023-02-01T16:50:52;40.10;;;5.43;;
52940;SDS011;62001;53.366;6.636;2023-02-01T16:53:23;39.33;;;6.47;;
52940;SDS011;62001;53.366;6.636;2023-02-01T16:55:50;30.00;;;6.10;;
52940;SDS011;62001;53.366;6.636;2023-02-01T16:58:17;38.33;;;5.67;;
52940;SDS011;62001;53.366;6.636;2023-02-01T17:00:44;37.90;;;6.73;;
52940;SDS011;62001;53.366;6.636;2023-02-01T17:03:12;36.07;;;6.93;;
52940;SDS011;62001;53.366;6.636;2023-02-01T17:05:42;29.40;;;6.60;;
52940;SDS011;62001;53.366;6.636;2023-02-01T17:08:12;40.78;;;6.78;;
52940;SDS011;62001;53.366;6.636;2023-02-01T17:10:41;34.47;;;6.28;;
52940;SDS011;62001;53.366;6.636;2023-02-01T17:13:09;33.03;;;5.70;;
52940;SDS011;62001;53.366;6.636;2023-02-01T17:15:40;32.27;;;6.13;;
52940;SDS011;62001;53.366;6.636;2023-02-01T17:18:13;29.83;;;5.53;;
52940;SDS011;62001;53.366;6.636;2023-02-01T17:20:41;36.47;;;8.03;;
52940;SDS011;62001;53.366;6.636;2023-02-01T17:23:08;39.10;;;6.37;;
52940;SDS011;62001;53.366;6.636;2023-02-01T17:25:34;43.23;;;6.70;;
52940;SDS011;62001;53.366;6.636;2023-02-01T17:28:00;28.83;;;5.40;;
52940;SDS011;62001;53.366;6.636;2023-02-01T17:30:26;33.83;;;6.47;;
52940;SDS011;62001;53.366;6.636;2023-02-01T17:32:52;34.27;;;5.63;;
52940;SDS011;62001;53.366;6.636;2023-02-01T17:35:21;33.10;;;6.40;;
52940;SDS011;62001;53.366;6.636;2023-02-01T17:37:48;33.23;;;5.87;;
52940;SDS011;62001;53.366;6.636;2023-02-01T17:40:14;34.53;;;5.63;;
52940;SDS011;62001;53.366;6.636;2023-02-01T17:42:41;33.27;;;5.57;;
52940;SDS011;62001;53.366;6.636;2023-02-01T17:48:05;37.63;;;6.63;;
52940;SDS011;62001;53.366;6.636;2023-02-01T17:50:33;30.57;;;4.87;;
52940;SDS011;62001;53.366;6.636;2023-02-01T17:53:01;23.60;;;4.70;;
52940;SDS011;62001;53.366;6.636;2023-02-01T17:55:31;36.77;;;5.73;;
52940;SDS011;62001;53.366;6.636;2023-02-01T17:57:59;29.92;;;6.03;;
52940;SDS011;62001;53.366;6.636;2023-02-01T18:00:25;31.20;;;5.60;;
52940;SDS011;62001;53.366;6.636;2023-02-01T18:02:51;35.63;;;5.87;;
52940;SDS011;62001;53.366;6.636;2023-02-01T18:07:49;35.00;;;5.97;;
52940;SDS011;62001;53.366;6.636;2023-02-01T18:10:15;34.77;;;6.83;;
52940;SDS011;62001;53.366;6.636;2023-02-01T18:12:41;30.37;;;6.00;;